sensor_id;sensor_type;location;lat;lon;timestamp;P1;durP1;ratioP1;P2;durP2;ratioP2
14748;SDS011;7466;53.574;9.976;2023-10-13T00:01:20;9.37;;;3.90;;
14748;SDS011;7466;53.574;9.976;2023-10-13T00:03:47;14.03;;;4.30;;
14748;SDS011;7466;53.574;9.976;2023-10-13T00:06:14;10.23;;;4.40;;
14748;SDS011;7466;53.574;9.976;2023-10-13T00:08:40;13.27;;;4.50;;
14748;SDS011;7466;53.574;9.976;2023-10-13T00:11:11;11.03;;;4.67;;
14748;SDS011;7466;53.574;9.976;2023-10-13T00:13:39;14.67;;;5.23;;
14748;SDS011;7466;53.574;9.976;2023-10-13T00:16:15;11.83;;;4.87;;
14748;SDS011;7466;53.574;9.976;2023-10-13T00:18:46;11.50;;;4.70;;
14748;SDS011;7466;53.574;9.976;2023-10-13T00:21:14;13.60;;;5.53;;
14748;SDS011;7466;53.574;9.976;2023-10-13T00:23:56;11.47;;;5.37;;
14748;SDS011;7466;53.574;9.976;2023-10-13T00:26:27;18.33;;;5.70;;
14748;SDS011;7466;53.574;9.976;2023-10-13T00:28:57;16.07;;;5.77;;
14748;SDS011;7466;53.574;9.976;2023-10-13T00:31:34;16.03;;;6.23;;
14748;SDS011;7466;53.574;9.976;2023-10-13T00:34:03;15.63;;;6.60;;
14748;SDS011;7466;53.574;9.976;2023-10-13T00:36:37;14.33;;;5.83;;
14748;SDS011;7466;53.574;9.976;2023-10-13T00:39:12;18.27;;;6.83;;
14748;SDS011;7466;53.574;9.976;2023-10-13T00:41:41;18.47;;;7.40;;
14748;SDS011;7466;53.574;9.976;2023-10-13T00:44:19;17.63;;;7.67;;
14748;SDS011;7466;53.574;9.976;2023-10-13T00:46:53;19.57;;;8.90;;
14748;SDS011;7466;53.574;9.976;2023-10-13T00:49:22;21.33;;;9.13;;
14748;SDS011;7466;53.574;9.976;2023-10-13T00:51:49;22.60;;;9.03;;
14748;SDS011;7466;53.574;9.976;2023-10-13T00:54:16;22.03;;;9.10;;
14748;SDS011;7466;53.574;9.976;2023-10-13T00:56:51;27.23;;;10.13;;
14748;SDS011;7466;53.574;9.976;2023-10-13T00:59:24;25.53;;;10.23;;
14748;SDS011;7466;53.574;9.976;2023-10-13T01:01:51;24.47;;;9.73;;
14748;SDS011;7466;53.574;9.976;2023-10-13T01:04:20;27.97;;;10.40;;
14748;SDS011;7466;53.574;9.976;2023-10-13T01:06:48;28.60;;;10.57;;
14748;SDS011;7466;53.574;9.976;2023-10-13T01:09:16;20.57;;;10.17;;
14748;SDS011;7466;53.574;9.976;2023-10-13T01:11:43;31.03;;;10.57;;
14748;SDS011;7466;53.574;9.976;2023-10-13T01:14:11;31.23;;;10.43;;
14748;SDS011;7466;53.574;9.976;2023-10-13T01:16:38;27.17;;;11.03;;
14748;SDS011;7466;53.574;9.976;2023-10-13T01:19:08;26.60;;;10.20;;
14748;SDS011;7466;53.574;9.976;2023-10-13T01:21:37;23.73;;;11.07;;
14748;SDS011;7466;53.574;9.976;2023-10-13T01:24:07;29.17;;;10.80;;
14748;SDS011;7466;53.574;9.976;2023-10-13T01:26:33;29.70;;;11.47;;
14748;SDS011;7466;53.574;9.976;2023-10-13T01:29:04;28.57;;;11.60;;
14748;SDS011;7466;53.574;9.976;2023-10-13T01:31:37;30.73;;;11.20;;
14748;SDS011;7466;53.574;9.976;2023-10-13T01:34:10;30.03;;;11.83;;
14748;SDS011;7466;53.574;9.976;2023-10-13T01:36:37;26.67;;;11.43;;
14748;SDS011;7466;53.574;9.976;2023-10-13T01:39:07;29.57;;;11.53;;
14748;SDS011;7466;53.574;9.976;2023-10-13T01:41:32;25.27;;;11.43;;
14748;SDS011;7466;53.574;9.976;2023-10-13T01:44:02;23.33;;;10.77;;
14748;SDS011;7466;53.574;9.976;2023-10-13T01:46:29;35.07;;;12.83;;
14748;SDS011;7466;53.574;9.976;2023-10-13T01:48:57;28.70;;;11.30;;
14748;SDS011;7466;53.574;9.976;2023-10-13T01:51:23;29.87;;;13.10;;
14748;SDS011;7466;53.574;9.976;2023-10-13T01:53:52;26.53;;;12.40;;
14748;SDS011;7466;53.574;9.976;2023-10-13T01:56:22;30.00;;;13.83;;
14748;SDS011;7466;53.574;9.976;2023-10-13T01:58:50;34.80;;;13.03;;
14748;SDS011;7466;53.574;9.976;2023-10-13T02:01:17;29.67;;;13.77;;
14748;SDS011;7466;53.574;9.976;2023-10-13T02:03:51;30.23;;;13.37;;
14748;SDS011;7466;53.574;9.976;2023-10-13T02:06:26;30.97;;;14.40;;
14748;SDS011;7466;53.574;9.976;2023-10-13T02:08:57;37.23;;;14.57;;
14748;SDS011;7466;53.574;9.976;2023-10-13T02:11:29;36.37;;;14.83;;
14748;SDS011;7466;53.574;9.976;2023-10-13T02:13:56;32.03;;;14.17;;
14748;SDS011;7466;53.574;9.976;2023-10-13T02:16:22;33.53;;;14.93;;
14748;SDS011;7466;53.574;9.976;2023-10-13T02:18:50;37.40;;;15.40;;
14748;SDS011;7466;53.574;9.976;2023-10-13T02:21:17;37.57;;;15.67;;
14748;SDS011;7466;53.574;9.976;2023-10-13T02:23:44;39.30;;;16.17;;
14748;SDS011;7466;53.574;9.976;2023-10-13T02:26:10;36.37;;;15.83;;
14748;SDS011;7466;53.574;9.976;2023-10-13T02:28:41;41.93;;;16.90;;
14748;SDS011;7466;53.574;9.976;2023-10-13T02:31:09;36.60;;;16.83;;
14748;SDS011;7466;53.574;9.976;2023-10-13T02:33:36;41.80;;;18.97;;
14748;SDS011;7466;53.574;9.976;2023-10-13T02:36:10;39.17;;;18.50;;
14748;SDS011;7466;53.574;9.976;2023-10-13T02:38:37;44.17;;;18.63;;
14748;SDS011;7466;53.574;9.976;2023-10-13T02:41:10;41.77;;;17.87;;
14748;SDS011;7466;53.574;9.976;2023-10-13T02:43:45;38.80;;;18.03;;
14748;SDS011;7466;53.574;9.976;2023-10-13T02:46:11;40.23;;;18.70;;
14748;SDS011;7466;53.574;9.976;2023-10-13T02:48:40;36.90;;;17.57;;
14748;SDS011;7466;53.574;9.976;2023-10-13T02:51:11;38.37;;;16.93;;
14748;SDS011;7466;53.574;9.976;2023-10-13T02:53:40;39.37;;;18.73;;
14748;SDS011;7466;53.574;9.976;2023-10-13T02:56:11;40.37;;;17.77;;
14748;SDS011;7466;53.574;9.976;2023-10-13T02:58:38;41.20;;;17.43;;
14748;SDS011;7466;53.574;9.976;2023-10-13T03:01:10;30.17;;;16.97;;
14748;SDS011;7466;53.574;9.976;2023-10-13T03:03:42;44.27;;;18.00;;
14748;SDS011;7466;53.574;9.976;2023-10-13T03:06:12;41.00;;;18.40;;
14748;SDS011;7466;53.574;9.976;2023-10-13T03:08:39;39.90;;;18.50;;
14748;SDS011;7466;53.574;9.976;2023-10-13T03:11:08;39.37;;;17.47;;
14748;SDS011;7466;53.574;9.976;2023-10-13T03:13:34;41.47;;;19.10;;
14748;SDS011;7466;53.574;9.976;2023-10-13T03:16:02;41.40;;;18.27;;
14748;SDS011;7466;53.574;9.976;2023-10-13T03:18:40;39.23;;;18.40;;
14748;SDS011;7466;53.574;9.976;2023-10-13T03:21:16;38.33;;;18.30;;
14748;SDS011;7466;53.574;9.976;2023-10-13T03:23:53;44.50;;;19.83;;
14748;SDS011;7466;53.574;9.976;2023-10-13T03:26:20;41.10;;;19.30;;
14748;SDS011;7466;53.574;9.976;2023-10-13T03:28:47;44.30;;;20.93;;
14748;SDS011;7466;53.574;9.976;2023-10-13T03:31:18;45.13;;;21.07;;
14748;SDS011;7466;53.574;9.976;2023-10-13T03:33:52;39.90;;;19.70;;
14748;SDS011;7466;53.574;9.976;2023-10-13T03:36:24;44.00;;;19.20;;
14748;SDS011;7466;53.574;9.976;2023-10-13T03:39:21;33.50;;;17.70;;
14748;SDS011;7466;53.574;9.976;2023-10-13T03:41:55;34.33;;;16.50;;
14748;SDS011;7466;53.574;9.976;2023-10-13T03:44:23;30.77;;;16.47;;
14748;SDS011;7466;53.574;9.976;2023-10-13T03:46:56;26.13;;;15.47;;
14748;SDS011;7466;53.574;9.976;2023-10-13T03:49:33;23.43;;;14.07;;
14748;SDS011;7466;53.574;9.976;2023-10-13T03:52:03;24.20;;;14.23;;
14748;SDS011;7466;53.574;9.976;2023-10-13T03:54:30;22.97;;;13.63;;
14748;SDS011;7466;53.574;9.976;2023-10-13T03:57:00;18.23;;;12.90;;
14748;SDS011;7466;53.574;9.976;2023-10-13T03:59:35;22.27;;;13.30;;
14748;SDS011;7466;53.574;9.976;2023-10-13T04:02:04;20.43;;;13.83;;
14748;SDS011;7466;53.574;9.976;2023-10-13T04:04:37;23.03;;;14.50;;
14748;SDS011;7466;53.574;9.976;2023-10-13T04:07:13;22.60;;;14.80;;
14748;SDS011;7466;53.574;9.976;2023-10-13T04:10:00;28.20;;;14.60;;
14748;SDS011;7466;53.574;9.976;2023-10-13T04:12:45;23.97;;;15.40;;
14748;SDS011;7466;53.574;9.976;2023-10-13T04:15:29;25.23;;;14.80;;
14748;SDS011;7466;53.574;9.976;2023-10-13T04:18:08;24.73;;;16.23;;
14748;SDS011;7466;53.574;9.976;2023-10-13T04:20:58;23.33;;;15.73;;
14748;SDS011;7466;53.574;9.976;2023-10-13T04:23:43;25.10;;;15.93;;
14748;SDS011;7466;53.574;9.976;2023-10-13T04:26:24;25.17;;;16.80;;
14748;SDS011;7466;53.574;9.976;2023-10-13T04:29:01;28.60;;;15.40;;
14748;SDS011;7466;53.574;9.976;2023-10-13T04:31:35;25.03;;;16.90;;
14748;SDS011;7466;53.574;9.976;2023-10-13T04:34:26;27.67;;;16.90;;
14748;SDS011;7466;53.574;9.976;2023-10-13T04:37:00;28.03;;;17.57;;
14748;SDS011;7466;53.574;9.976;2023-10-13T04:39:48;26.97;;;17.80;;
14748;SDS011;7466;53.574;9.976;2023-10-13T04:42:21;29.63;;;17.90;;
14748;SDS011;7466;53.574;9.976;2023-10-13T04:45:04;31.57;;;19.00;;
14748;SDS011;7466;53.574;9.976;2023-10-13T04:47:53;32.43;;;18.90;;
14748;SDS011;7466;53.574;9.976;2023-10-13T04:50:39;37.70;;;21.37;;
14748;SDS011;7466;53.574;9.976;2023-10-13T04:53:10;39.23;;;21.37;;
14748;SDS011;7466;53.574;9.976;2023-10-13T04:55:52;39.90;;;21.93;;
14748;SDS011;7466;53.574;9.976;2023-10-13T04:58:32;48.27;;;26.57;;
14748;SDS011;7466;53.574;9.976;2023-10-13T05:01:31;47.63;;;27.93;;
14748;SDS011;7466;53.574;9.976;2023-10-13T05:04:15;58.33;;;29.90;;
14748;SDS011;7466;53.574;9.976;2023-10-13T05:06:56;66.37;;;34.83;;
14748;SDS011;7466;53.574;9.976;2023-10-13T05:09:49;72.43;;;37.10;;
14748;SDS011;7466;53.574;9.976;2023-10-13T05:12:33;89.10;;;43.43;;
14748;SDS011;7466;53.574;9.976;2023-10-13T05:15:18;87.63;;;44.60;;
14748;SDS011;7466;53.574;9.976;2023-10-13T05:18:02;94.53;;;48.37;;
14748;SDS011;7466;53.574;9.976;2023-10-13T05:20:47;87.73;;;45.73;;
14748;SDS011;7466;53.574;9.976;2023-10-13T05:23:32;91.70;;;47.33;;
14748;SDS011;7466;53.574;9.976;2023-10-13T05:26:16;99.97;;;47.03;;
14748;SDS011;7466;53.574;9.976;2023-10-13T05:29:00;88.13;;;45.20;;
14748;SDS011;7466;53.574;9.976;2023-10-13T05:31:45;83.57;;;45.73;;
14748;SDS011;7466;53.574;9.976;2023-10-13T05:34:28;83.07;;;44.53;;
14748;SDS011;7466;53.574;9.976;2023-10-13T05:37:12;81.10;;;45.33;;
14748;SDS011;7466;53.574;9.976;2023-10-13T05:39:58;81.87;;;45.70;;
14748;SDS011;7466;53.574;9.976;2023-10-13T05:42:42;77.17;;;44.67;;
14748;SDS011;7466;53.574;9.976;2023-10-13T05:45:26;70.27;;;41.60;;
14748;SDS011;7466;53.574;9.976;2023-10-13T05:48:22;73.50;;;42.20;;
14748;SDS011;7466;53.574;9.976;2023-10-13T05:51:06;69.13;;;41.50;;
14748;SDS011;7466;53.574;9.976;2023-10-13T05:53:51;70.37;;;42.20;;
14748;SDS011;7466;53.574;9.976;2023-10-13T05:56:37;75.93;;;43.00;;
14748;SDS011;7466;53.574;9.976;2023-10-13T05:59:21;67.50;;;42.03;;
14748;SDS011;7466;53.574;9.976;2023-10-13T06:02:05;69.40;;;41.33;;
14748;SDS011;7466;53.574;9.976;2023-10-13T06:04:49;61.03;;;39.50;;
14748;SDS011;7466;53.574;9.976;2023-10-13T06:07:33;65.27;;;40.80;;
14748;SDS011;7466;53.574;9.976;2023-10-13T06:10:17;65.87;;;41.40;;
14748;SDS011;7466;53.574;9.976;2023-10-13T06:13:08;61.80;;;40.23;;
14748;SDS011;7466;53.574;9.976;2023-10-13T06:15:51;64.53;;;40.83;;
14748;SDS011;7466;53.574;9.976;2023-10-13T06:18:36;55.60;;;39.00;;
14748;SDS011;7466;53.574;9.976;2023-10-13T06:21:20;61.37;;;40.20;;
14748;SDS011;7466;53.574;9.976;2023-10-13T06:24:05;56.47;;;38.37;;
14748;SDS011;7466;53.574;9.976;2023-10-13T06:26:50;58.63;;;38.90;;
14748;SDS011;7466;53.574;9.976;2023-10-13T06:29:36;56.17;;;38.07;;
14748;SDS011;7466;53.574;9.976;2023-10-13T06:32:02;52.33;;;38.33;;
14748;SDS011;7466;53.574;9.976;2023-10-13T06:34:35;55.70;;;37.90;;
14748;SDS011;7466;53.574;9.976;2023-10-13T06:37:09;51.03;;;37.27;;
14748;SDS011;7466;53.574;9.976;2023-10-13T06:39:48;54.90;;;38.27;;
14748;SDS011;7466;53.574;9.976;2023-10-13T06:42:15;52.63;;;37.87;;
14748;SDS011;7466;53.574;9.976;2023-10-13T06:44:45;51.77;;;37.63;;
14748;SDS011;7466;53.574;9.976;2023-10-13T06:47:12;53.63;;;38.90;;
14748;SDS011;7466;53.574;9.976;2023-10-13T06:49:39;51.27;;;38.27;;
14748;SDS011;7466;53.574;9.976;2023-10-13T06:52:08;50.70;;;38.83;;
14748;SDS011;7466;53.574;9.976;2023-10-13T06:54:36;49.57;;;37.47;;
14748;SDS011;7466;53.574;9.976;2023-10-13T06:57:04;51.20;;;38.53;;
14748;SDS011;7466;53.574;9.976;2023-10-13T06:59:32;50.93;;;38.07;;
14748;SDS011;7466;53.574;9.976;2023-10-13T07:02:02;47.53;;;36.10;;
14748;SDS011;7466;53.574;9.976;2023-10-13T07:04:31;49.70;;;38.27;;
14748;SDS011;7466;53.574;9.976;2023-10-13T07:06:58;47.93;;;35.87;;
14748;SDS011;7466;53.574;9.976;2023-10-13T07:09:26;47.77;;;37.37;;
14748;SDS011;7466;53.574;9.976;2023-10-13T07:12:14;47.43;;;36.40;;
14748;SDS011;7466;53.574;9.976;2023-10-13T07:14:47;46.27;;;36.10;;
14748;SDS011;7466;53.574;9.976;2023-10-13T07:17:19;51.83;;;37.33;;
14748;SDS011;7466;53.574;9.976;2023-10-13T07:19:50;45.13;;;35.83;;
14748;SDS011;7466;53.574;9.976;2023-10-13T07:22:19;44.73;;;35.27;;
14748;SDS011;7466;53.574;9.976;2023-10-13T07:24:49;47.17;;;35.97;;
14748;SDS011;7466;53.574;9.976;2023-10-13T07:27:17;46.87;;;35.70;;
14748;SDS011;7466;53.574;9.976;2023-10-13T07:29:49;42.80;;;34.60;;
14748;SDS011;7466;53.574;9.976;2023-10-13T07:32:23;42.07;;;35.07;;
14748;SDS011;7466;53.574;9.976;2023-10-13T07:34:52;41.00;;;35.00;;
14748;SDS011;7466;53.574;9.976;2023-10-13T07:37:23;47.23;;;35.57;;
14748;SDS011;7466;53.574;9.976;2023-10-13T07:39:54;43.33;;;33.43;;
14748;SDS011;7466;53.574;9.976;2023-10-13T07:42:22;41.13;;;32.00;;
14748;SDS011;7466;53.574;9.976;2023-10-13T07:44:55;39.40;;;32.60;;
14748;SDS011;7466;53.574;9.976;2023-10-13T07:47:23;38.57;;;32.90;;
14748;SDS011;7466;53.574;9.976;2023-10-13T07:49:53;40.23;;;34.70;;
14748;SDS011;7466;53.574;9.976;2023-10-13T07:52:22;39.93;;;32.93;;
14748;SDS011;7466;53.574;9.976;2023-10-13T07:55:01;37.03;;;28.70;;
14748;SDS011;7466;53.574;9.976;2023-10-13T07:57:36;33.20;;;28.63;;
14748;SDS011;7466;53.574;9.976;2023-10-13T08:00:18;31.87;;;28.50;;
14748;SDS011;7466;53.574;9.976;2023-10-13T08:02:57;30.03;;;26.87;;
14748;SDS011;7466;53.574;9.976;2023-10-13T08:05:34;29.50;;;26.40;;
14748;SDS011;7466;53.574;9.976;2023-10-13T08:08:21;34.40;;;27.10;;
14748;SDS011;7466;53.574;9.976;2023-10-13T08:10:50;27.97;;;24.73;;
14748;SDS011;7466;53.574;9.976;2023-10-13T08:13:22;27.87;;;24.07;;
14748;SDS011;7466;53.574;9.976;2023-10-13T08:15:49;27.60;;;22.87;;
14748;SDS011;7466;53.574;9.976;2023-10-13T08:18:19;25.53;;;22.57;;
14748;SDS011;7466;53.574;9.976;2023-10-13T08:20:55;25.33;;;22.63;;
14748;SDS011;7466;53.574;9.976;2023-10-13T08:23:28;22.73;;;20.63;;
14748;SDS011;7466;53.574;9.976;2023-10-13T08:26:20;22.83;;;20.43;;
14748;SDS011;7466;53.574;9.976;2023-10-13T08:28:55;23.93;;;21.13;;
14748;SDS011;7466;53.574;9.976;2023-10-13T08:31:22;22.90;;;20.60;;
14748;SDS011;7466;53.574;9.976;2023-10-13T08:33:52;22.57;;;20.17;;
14748;SDS011;7466;53.574;9.976;2023-10-13T08:36:30;23.50;;;20.97;;
14748;SDS011;7466;53.574;9.976;2023-10-13T08:38:58;23.20;;;21.00;;
14748;SDS011;7466;53.574;9.976;2023-10-13T08:41:41;23.30;;;20.83;;
14748;SDS011;7466;53.574;9.976;2023-10-13T08:44:35;23.20;;;20.93;;
14748;SDS011;7466;53.574;9.976;2023-10-13T08:47:03;20.63;;;18.57;;
14748;SDS011;7466;53.574;9.976;2023-10-13T08:49:33;20.20;;;18.30;;
14748;SDS011;7466;53.574;9.976;2023-10-13T08:52:08;20.40;;;18.33;;
14748;SDS011;7466;53.574;9.976;2023-10-13T08:54:51;18.97;;;17.23;;
14748;SDS011;7466;53.574;9.976;2023-10-13T08:57:38;17.87;;;16.27;;
14748;SDS011;7466;53.574;9.976;2023-10-13T09:00:06;16.73;;;15.03;;
14748;SDS011;7466;53.574;9.976;2023-10-13T09:03:13;15.17;;;13.97;;
14748;SDS011;7466;53.574;9.976;2023-10-13T09:05:55;14.40;;;13.13;;
14748;SDS011;7466;53.574;9.976;2023-10-13T09:08:31;13.53;;;12.53;;
14748;SDS011;7466;53.574;9.976;2023-10-13T09:11:01;14.80;;;13.60;;
14748;SDS011;7466;53.574;9.976;2023-10-13T09:13:36;14.67;;;13.47;;
14748;SDS011;7466;53.574;9.976;2023-10-13T09:16:09;13.33;;;12.03;;
14748;SDS011;7466;53.574;9.976;2023-10-13T09:18:41;12.20;;;11.23;;
14748;SDS011;7466;53.574;9.976;2023-10-13T09:21:12;11.87;;;10.70;;
14748;SDS011;7466;53.574;9.976;2023-10-13T09:24:08;11.20;;;10.30;;
14748;SDS011;7466;53.574;9.976;2023-10-13T09:26:47;11.20;;;10.17;;
14748;SDS011;7466;53.574;9.976;2023-10-13T09:29:18;11.77;;;10.70;;
14748;SDS011;7466;53.574;9.976;2023-10-13T09:31:45;10.43;;;9.40;;
14748;SDS011;7466;53.574;9.976;2023-10-13T09:34:19;11.57;;;10.37;;
14748;SDS011;7466;53.574;9.976;2023-10-13T09:36:47;10.20;;;9.30;;
14748;SDS011;7466;53.574;9.976;2023-10-13T09:39:21;10.23;;;9.30;;
14748;SDS011;7466;53.574;9.976;2023-10-13T09:42:06;12.73;;;8.57;;
14748;SDS011;7466;53.574;9.976;2023-10-13T09:44:35;10.03;;;8.33;;
14748;SDS011;7466;53.574;9.976;2023-10-13T09:47:08;10.70;;;8.07;;
14748;SDS011;7466;53.574;9.976;2023-10-13T09:49:43;11.40;;;8.00;;
14748;SDS011;7466;53.574;9.976;2023-10-13T09:52:16;8.60;;;7.80;;
14748;SDS011;7466;53.574;9.976;2023-10-13T09:57:37;8.20;;;6.90;;
14748;SDS011;7466;53.574;9.976;2023-10-13T10:00:10;8.90;;;6.50;;
14748;SDS011;7466;53.574;9.976;2023-10-13T10:03:01;9.03;;;6.97;;
14748;SDS011;7466;53.574;9.976;2023-10-13T10:05:40;12.63;;;7.40;;
14748;SDS011;7466;53.574;9.976;2023-10-13T10:08:22;8.93;;;7.07;;
14748;SDS011;7466;53.574;9.976;2023-10-13T10:10:59;9.30;;;6.73;;
14748;SDS011;7466;53.574;9.976;2023-10-13T10:13:34;9.23;;;7.27;;
14748;SDS011;7466;53.574;9.976;2023-10-13T10:16:06;9.83;;;7.00;;
14748;SDS011;7466;53.574;9.976;2023-10-13T10:18:39;11.20;;;7.33;;
14748;SDS011;7466;53.574;9.976;2023-10-13T10:21:07;8.83;;;7.00;;
14748;SDS011;7466;53.574;9.976;2023-10-13T10:23:36;11.63;;;7.60;;
14748;SDS011;7466;53.574;9.976;2023-10-13T10:26:10;8.30;;;7.27;;
14748;SDS011;7466;53.574;9.976;2023-10-13T10:28:39;10.07;;;6.97;;
14748;SDS011;7466;53.574;9.976;2023-10-13T10:31:07;10.97;;;7.57;;
14748;SDS011;7466;53.574;9.976;2023-10-13T10:33:37;16.23;;;8.40;;
14748;SDS011;7466;53.574;9.976;2023-10-13T10:36:04;11.10;;;7.47;;
14748;SDS011;7466;53.574;9.976;2023-10-13T10:38:31;10.90;;;7.10;;
14748;SDS011;7466;53.574;9.976;2023-10-13T10:41:05;8.40;;;7.10;;
14748;SDS011;7466;53.574;9.976;2023-10-13T10:43:36;7.77;;;6.90;;
14748;SDS011;7466;53.574;9.976;2023-10-13T10:46:11;10.53;;;7.40;;
14748;SDS011;7466;53.574;9.976;2023-10-13T10:48:38;11.10;;;7.20;;
14748;SDS011;7466;53.574;9.976;2023-10-13T10:51:08;13.60;;;7.20;;
14748;SDS011;7466;53.574;9.976;2023-10-13T10:53:46;8.07;;;7.00;;
14748;SDS011;7466;53.574;9.976;2023-10-13T10:56:15;10.00;;;6.47;;
14748;SDS011;7466;53.574;9.976;2023-10-13T10:58:48;13.13;;;7.03;;
14748;SDS011;7466;53.574;9.976;2023-10-13T11:01:20;10.67;;;6.47;;
14748;SDS011;7466;53.574;9.976;2023-10-13T11:03:53;10.03;;;6.53;;
14748;SDS011;7466;53.574;9.976;2023-10-13T11:06:23;11.07;;;7.17;;
14748;SDS011;7466;53.574;9.976;2023-10-13T11:09:00;13.57;;;6.67;;
14748;SDS011;7466;53.574;9.976;2023-10-13T11:11:30;8.50;;;6.40;;
14748;SDS011;7466;53.574;9.976;2023-10-13T11:14:00;13.40;;;6.67;;
14748;SDS011;7466;53.574;9.976;2023-10-13T11:16:46;13.63;;;7.37;;
14748;SDS011;7466;53.574;9.976;2023-10-13T11:19:16;8.77;;;7.20;;
14748;SDS011;7466;53.574;9.976;2023-10-13T11:21:45;8.00;;;6.83;;
14748;SDS011;7466;53.574;9.976;2023-10-13T11:24:13;10.03;;;7.60;;
14748;SDS011;7466;53.574;9.976;2023-10-13T11:26:44;11.43;;;7.30;;
14748;SDS011;7466;53.574;9.976;2023-10-13T11:29:15;11.37;;;7.83;;
14748;SDS011;7466;53.574;9.976;2023-10-13T11:31:44;8.67;;;7.17;;
14748;SDS011;7466;53.574;9.976;2023-10-13T11:34:18;13.13;;;7.10;;
14748;SDS011;7466;53.574;9.976;2023-10-13T11:36:45;14.83;;;7.40;;
14748;SDS011;7466;53.574;9.976;2023-10-13T11:39:12;9.37;;;7.13;;
14748;SDS011;7466;53.574;9.976;2023-10-13T11:41:45;11.77;;;6.93;;
14748;SDS011;7466;53.574;9.976;2023-10-13T11:44:19;12.87;;;6.97;;
14748;SDS011;7466;53.574;9.976;2023-10-13T11:46:57;11.80;;;6.97;;
14748;SDS011;7466;53.574;9.976;2023-10-13T11:49:42;11.97;;;6.70;;
14748;SDS011;7466;53.574;9.976;2023-10-13T11:52:09;12.53;;;6.83;;
14748;SDS011;7466;53.574;9.976;2023-10-13T11:54:45;10.10;;;6.07;;
14748;SDS011;7466;53.574;9.976;2023-10-13T11:57:14;10.77;;;6.30;;
14748;SDS011;7466;53.574;9.976;2023-10-13T11:59:45;10.40;;;6.90;;
14748;SDS011;7466;53.574;9.976;2023-10-13T12:02:18;9.07;;;6.27;;
14748;SDS011;7466;53.574;9.976;2023-10-13T12:05:06;11.40;;;6.23;;
14748;SDS011;7466;53.574;9.976;2023-10-13T12:07:40;9.10;;;5.80;;
14748;SDS011;7466;53.574;9.976;2023-10-13T12:10:14;11.50;;;7.17;;
14748;SDS011;7466;53.574;9.976;2023-10-13T12:12:47;9.77;;;5.60;;
14748;SDS011;7466;53.574;9.976;2023-10-13T12:15:18;10.43;;;5.67;;
14748;SDS011;7466;53.574;9.976;2023-10-13T12:17:59;8.27;;;5.50;;
14748;SDS011;7466;53.574;9.976;2023-10-13T12:20:28;13.20;;;5.93;;
14748;SDS011;7466;53.574;9.976;2023-10-13T12:23:01;13.97;;;6.13;;
14748;SDS011;7466;53.574;9.976;2023-10-13T12:25:40;11.33;;;6.23;;
14748;SDS011;7466;53.574;9.976;2023-10-13T12:28:26;8.77;;;5.90;;
14748;SDS011;7466;53.574;9.976;2023-10-13T12:30:56;12.17;;;5.17;;
14748;SDS011;7466;53.574;9.976;2023-10-13T12:33:31;7.27;;;5.70;;
14748;SDS011;7466;53.574;9.976;2023-10-13T12:36:03;12.60;;;5.40;;
14748;SDS011;7466;53.574;9.976;2023-10-13T12:38:34;14.83;;;5.60;;
14748;SDS011;7466;53.574;9.976;2023-10-13T12:41:18;11.53;;;5.43;;
14748;SDS011;7466;53.574;9.976;2023-10-13T12:44:05;10.70;;;6.00;;
14748;SDS011;7466;53.574;9.976;2023-10-13T12:46:50;12.97;;;6.27;;
14748;SDS011;7466;53.574;9.976;2023-10-13T12:49:35;10.10;;;5.90;;
14748;SDS011;7466;53.574;9.976;2023-10-13T12:52:17;8.80;;;5.63;;
14748;SDS011;7466;53.574;9.976;2023-10-13T12:54:44;13.23;;;5.73;;
14748;SDS011;7466;53.574;9.976;2023-10-13T12:57:19;9.80;;;5.33;;
14748;SDS011;7466;53.574;9.976;2023-10-13T12:59:49;13.87;;;6.20;;
14748;SDS011;7466;53.574;9.976;2023-10-13T13:02:18;10.38;;;5.40;;
14748;SDS011;7466;53.574;9.976;2023-10-13T13:04:45;14.67;;;6.17;;
14748;SDS011;7466;53.574;9.976;2023-10-13T13:07:16;14.10;;;6.33;;
14748;SDS011;7466;53.574;9.976;2023-10-13T13:09:43;14.53;;;6.03;;
14748;SDS011;7466;53.574;9.976;2023-10-13T13:12:10;13.43;;;5.87;;
14748;SDS011;7466;53.574;9.976;2023-10-13T13:14:37;12.93;;;5.23;;
14748;SDS011;7466;53.574;9.976;2023-10-13T13:17:07;15.13;;;5.97;;
14748;SDS011;7466;53.574;9.976;2023-10-13T13:19:34;14.70;;;6.00;;
14748;SDS011;7466;53.574;9.976;2023-10-13T13:22:04;14.67;;;5.97;;
14748;SDS011;7466;53.574;9.976;2023-10-13T13:24:36;16.27;;;6.57;;
14748;SDS011;7466;53.574;9.976;2023-10-13T13:27:08;9.90;;;6.13;;
14748;SDS011;7466;53.574;9.976;2023-10-13T13:29:38;11.90;;;6.50;;
14748;SDS011;7466;53.574;9.976;2023-10-13T13:32:05;10.30;;;6.20;;
14748;SDS011;7466;53.574;9.976;2023-10-13T13:34:42;12.03;;;6.33;;
14748;SDS011;7466;53.574;9.976;2023-10-13T13:37:09;9.77;;;5.57;;
14748;SDS011;7466;53.574;9.976;2023-10-13T13:39:37;11.18;;;5.57;;
14748;SDS011;7466;53.574;9.976;2023-10-13T13:42:08;11.07;;;5.95;;
14748;SDS011;7466;53.574;9.976;2023-10-13T13:44:35;11.52;;;5.95;;
14748;SDS011;7466;53.574;9.976;2023-10-13T13:47:02;12.80;;;5.72;;
14748;SDS011;7466;53.574;9.976;2023-10-13T13:49:31;12.48;;;5.75;;
14748;SDS011;7466;53.574;9.976;2023-10-13T13:52:05;10.70;;;6.38;;
14748;SDS011;7466;53.574;9.976;2023-10-13T13:54:32;12.48;;;5.60;;
14748;SDS011;7466;53.574;9.976;2023-10-13T13:56:59;10.80;;;5.70;;
14748;SDS011;7466;53.574;9.976;2023-10-13T13:59:25;16.10;;;6.65;;
14748;SDS011;7466;53.574;9.976;2023-10-13T14:01:58;12.57;;;6.10;;
14748;SDS011;7466;53.574;9.976;2023-10-13T14:04:32;14.40;;;6.50;;
14748;SDS011;7466;53.574;9.976;2023-10-13T14:06:59;12.13;;;6.37;;
14748;SDS011;7466;53.574;9.976;2023-10-13T14:09:31;10.57;;;6.07;;
14748;SDS011;7466;53.574;9.976;2023-10-13T14:12:00;9.90;;;6.03;;
14748;SDS011;7466;53.574;9.976;2023-10-13T14:14:47;12.30;;;6.27;;
14748;SDS011;7466;53.574;9.976;2023-10-13T14:17:16;13.40;;;6.50;;
14748;SDS011;7466;53.574;9.976;2023-10-13T14:19:44;12.23;;;6.40;;
14748;SDS011;7466;53.574;9.976;2023-10-13T14:22:10;15.90;;;7.20;;
14748;SDS011;7466;53.574;9.976;2023-10-13T14:24:38;16.63;;;6.50;;
14748;SDS011;7466;53.574;9.976;2023-10-13T14:27:08;12.47;;;6.30;;
14748;SDS011;7466;53.574;9.976;2023-10-13T14:29:37;13.50;;;7.00;;
14748;SDS011;7466;53.574;9.976;2023-10-13T14:32:07;14.10;;;6.60;;
14748;SDS011;7466;53.574;9.976;2023-10-13T14:34:37;17.20;;;7.00;;
14748;SDS011;7466;53.574;9.976;2023-10-13T14:37:06;9.87;;;6.30;;
14748;SDS011;7466;53.574;9.976;2023-10-13T14:39:33;17.33;;;7.07;;
14748;SDS011;7466;53.574;9.976;2023-10-13T14:42:02;9.83;;;6.23;;
14748;SDS011;7466;53.574;9.976;2023-10-13T14:44:30;11.17;;;6.30;;
14748;SDS011;7466;53.574;9.976;2023-10-13T14:46:57;16.07;;;6.20;;
14748;SDS011;7466;53.574;9.976;2023-10-13T14:49:24;16.77;;;6.20;;
14748;SDS011;7466;53.574;9.976;2023-10-13T14:51:51;14.80;;;6.93;;
14748;SDS011;7466;53.574;9.976;2023-10-13T14:54:21;15.63;;;6.90;;
14748;SDS011;7466;53.574;9.976;2023-10-13T14:56:58;16.13;;;6.70;;
14748;SDS011;7466;53.574;9.976;2023-10-13T14:59:25;17.87;;;7.07;;
14748;SDS011;7466;53.574;9.976;2023-10-13T15:01:52;11.43;;;6.90;;
14748;SDS011;7466;53.574;9.976;2023-10-13T15:04:19;10.07;;;7.00;;
14748;SDS011;7466;53.574;9.976;2023-10-13T15:06:49;17.13;;;7.47;;
14748;SDS011;7466;53.574;9.976;2023-10-13T15:09:16;14.73;;;6.37;;
14748;SDS011;7466;53.574;9.976;2023-10-13T15:11:49;14.67;;;7.40;;
14748;SDS011;7466;53.574;9.976;2023-10-13T15:14:18;16.60;;;7.43;;
14748;SDS011;7466;53.574;9.976;2023-10-13T15:16:47;12.27;;;6.97;;
14748;SDS011;7466;53.574;9.976;2023-10-13T15:19:14;19.20;;;7.17;;
14748;SDS011;7466;53.574;9.976;2023-10-13T15:21:42;15.57;;;7.53;;